MMGM/GYM METAR and TAF weather

Enter ICAO airport designator
Station Type Date Time Source
MMGM METAR 2019/12/08 18:40 UTC NOAA

MMGM 081840Z 26010KT 10SM BKN150 24/19 A2998 RMK 8/010 HZY


Station Type Date Time Source
MMGM Decoded METAR 2019/12/08 18:40 UTC NOAA

Guaymas International Airport, Mexico (MMGM) 27-58N 110-56W
Dec 08, 2019 - 01:40 PM EST / 2019.12.08 1840 UTC
Wind: from the W (260 degrees) at 12 MPH (10 KT):0
Visibility: 10 mile(s):0
Sky conditions: mostly cloudy
Temperature: 75 F (24 C)
Dew Point: 66 F (19 C)
Relative Humidity: 73%
Pressure (altimeter): 29.98 in. Hg (1015 hPa)
ob: MMGM 081840Z 26010KT 10SM BKN150 24/19 A2998 RMK 8/010 HZY
cycle: 18

Station Type Date Time Source
MMGM TAF 2019/12/08 18:17 UTC NOAA

TAF MMGM 081610Z 0818/0918 25008KT P6SM SCT300
FM090400 29006KT P6SM SCT090 BKN280
BECMG 0909/0910 BKN030 OVC100
TEMPO 0912/0916 34008G18KT
FM091600 36010KT P6SM SCT040 BKN090 BKN280

Example: see airport list